sensor_id;sensor_type;location;lat;lon;timestamp;P1;durP1;ratioP1;P2;durP2;ratioP2
63536;SDS011;49686;51.880;5.632;2022-09-09T00:00:12;7.07;;;4.13;;
63536;SDS011;49686;51.880;5.632;2022-09-09T00:02:40;4.28;;;3.53;;
63536;SDS011;49686;51.880;5.632;2022-09-09T00:05:14;4.47;;;3.50;;
63536;SDS011;49686;51.880;5.632;2022-09-09T00:07:50;4.85;;;3.63;;
63536;SDS011;49686;51.880;5.632;2022-09-09T00:10:20;4.97;;;3.53;;
63536;SDS011;49686;51.880;5.632;2022-09-09T00:12:57;5.43;;;4.18;;
63536;SDS011;49686;51.880;5.632;2022-09-09T00:15:29;5.18;;;3.83;;
63536;SDS011;49686;51.880;5.632;2022-09-09T00:18:03;6.35;;;4.25;;
63536;SDS011;49686;51.880;5.632;2022-09-09T00:20:40;4.85;;;3.92;;
63536;SDS011;49686;51.880;5.632;2022-09-09T00:23:15;5.00;;;2.88;;
63536;SDS011;49686;51.880;5.632;2022-09-09T00:25:51;3.75;;;3.20;;
63536;SDS011;49686;51.880;5.632;2022-09-09T00:28:27;7.28;;;4.43;;
63536;SDS011;49686;51.880;5.632;2022-09-09T00:30:55;4.00;;;2.60;;
63536;SDS011;49686;51.880;5.632;2022-09-09T00:33:23;4.50;;;3.05;;
63536;SDS011;49686;51.880;5.632;2022-09-09T00:35:52;4.75;;;2.88;;
63536;SDS011;49686;51.880;5.632;2022-09-09T00:38:24;6.93;;;3.53;;
63536;SDS011;49686;51.880;5.632;2022-09-09T00:40:56;4.35;;;2.42;;
63536;SDS011;49686;51.880;5.632;2022-09-09T00:43:28;4.00;;;3.42;;
63536;SDS011;49686;51.880;5.632;2022-09-09T00:49:00;3.72;;;2.85;;
63536;SDS011;49686;51.880;5.632;2022-09-09T00:51:38;5.18;;;3.47;;
63536;SDS011;49686;51.880;5.632;2022-09-09T00:54:15;4.18;;;3.17;;
63536;SDS011;49686;51.880;5.632;2022-09-09T00:56:57;3.60;;;3.10;;
63536;SDS011;49686;51.880;5.632;2022-09-09T00:59:47;4.72;;;2.38;;
63536;SDS011;49686;51.880;5.632;2022-09-09T01:02:21;5.03;;;3.20;;
63536;SDS011;49686;51.880;5.632;2022-09-09T01:04:53;5.45;;;3.20;;
63536;SDS011;49686;51.880;5.632;2022-09-09T01:07:21;4.00;;;2.85;;
63536;SDS011;49686;51.880;5.632;2022-09-09T01:09:51;6.03;;;3.80;;
63536;SDS011;49686;51.880;5.632;2022-09-09T01:12:25;3.78;;;2.70;;
63536;SDS011;49686;51.880;5.632;2022-09-09T01:14:58;7.05;;;2.85;;
63536;SDS011;49686;51.880;5.632;2022-09-09T01:17:35;4.57;;;3.30;;
63536;SDS011;49686;51.880;5.632;2022-09-09T01:20:10;5.10;;;3.60;;
63536;SDS011;49686;51.880;5.632;2022-09-09T01:22:43;4.75;;;3.40;;
63536;SDS011;49686;51.880;5.632;2022-09-09T01:25:20;5.32;;;2.90;;
63536;SDS011;49686;51.880;5.632;2022-09-09T01:28:05;4.40;;;2.92;;
63536;SDS011;49686;51.880;5.632;2022-09-09T01:30:38;4.63;;;2.97;;
63536;SDS011;49686;51.880;5.632;2022-09-09T01:33:07;3.85;;;2.92;;
63536;SDS011;49686;51.880;5.632;2022-09-09T01:35:40;5.05;;;2.78;;
63536;SDS011;49686;51.880;5.632;2022-09-09T01:38:13;7.15;;;3.35;;
63536;SDS011;49686;51.880;5.632;2022-09-09T01:40:41;4.25;;;2.75;;
63536;SDS011;49686;51.880;5.632;2022-09-09T01:43:09;6.82;;;2.80;;
63536;SDS011;49686;51.880;5.632;2022-09-09T01:45:37;3.58;;;2.72;;
63536;SDS011;49686;51.880;5.632;2022-09-09T01:48:07;4.55;;;2.97;;
63536;SDS011;49686;51.880;5.632;2022-09-09T01:50:33;5.97;;;3.10;;
63536;SDS011;49686;51.880;5.632;2022-09-09T01:53:01;7.78;;;2.83;;
63536;SDS011;49686;51.880;5.632;2022-09-09T01:55:29;4.55;;;2.97;;
63536;SDS011;49686;51.880;5.632;2022-09-09T02:00:34;5.30;;;2.97;;
63536;SDS011;49686;51.880;5.632;2022-09-09T02:03:08;7.20;;;3.72;;
63536;SDS011;49686;51.880;5.632;2022-09-09T02:05:45;5.30;;;3.22;;
63536;SDS011;49686;51.880;5.632;2022-09-09T02:08:20;6.50;;;3.92;;
63536;SDS011;49686;51.880;5.632;2022-09-09T02:10:52;6.25;;;3.35;;
63536;SDS011;49686;51.880;5.632;2022-09-09T02:13:22;5.55;;;3.90;;
63536;SDS011;49686;51.880;5.632;2022-09-09T02:15:52;4.53;;;2.92;;
63536;SDS011;49686;51.880;5.632;2022-09-09T02:18:26;7.78;;;4.05;;
63536;SDS011;49686;51.880;5.632;2022-09-09T02:20:56;4.95;;;3.45;;
63536;SDS011;49686;51.880;5.632;2022-09-09T02:23:23;5.07;;;3.63;;
63536;SDS011;49686;51.880;5.632;2022-09-09T02:25:50;6.15;;;4.65;;
63536;SDS011;49686;51.880;5.632;2022-09-09T02:28:20;6.30;;;3.72;;
63536;SDS011;49686;51.880;5.632;2022-09-09T02:30:51;5.22;;;3.70;;
63536;SDS011;49686;51.880;5.632;2022-09-09T02:33:18;6.57;;;4.20;;
63536;SDS011;49686;51.880;5.632;2022-09-09T02:35:46;5.03;;;3.67;;
63536;SDS011;49686;51.880;5.632;2022-09-09T02:38:13;5.93;;;3.75;;
63536;SDS011;49686;51.880;5.632;2022-09-09T02:40:42;6.60;;;3.92;;
63536;SDS011;49686;51.880;5.632;2022-09-09T02:43:09;4.93;;;4.10;;
63536;SDS011;49686;51.880;5.632;2022-09-09T02:45:38;4.45;;;3.67;;
63536;SDS011;49686;51.880;5.632;2022-09-09T02:48:14;6.75;;;4.60;;
63536;SDS011;49686;51.880;5.632;2022-09-09T02:50:48;8.48;;;4.30;;
63536;SDS011;49686;51.880;5.632;2022-09-09T02:53:22;8.25;;;3.80;;
63536;SDS011;49686;51.880;5.632;2022-09-09T02:55:55;5.80;;;3.63;;
63536;SDS011;49686;51.880;5.632;2022-09-09T02:58:28;5.38;;;4.68;;
63536;SDS011;49686;51.880;5.632;2022-09-09T03:00:55;5.78;;;4.38;;
63536;SDS011;49686;51.880;5.632;2022-09-09T03:03:24;6.82;;;5.30;;
63536;SDS011;49686;51.880;5.632;2022-09-09T03:05:52;7.40;;;5.47;;
63536;SDS011;49686;51.880;5.632;2022-09-09T03:08:19;7.25;;;5.53;;
63536;SDS011;49686;51.880;5.632;2022-09-09T03:10:45;6.07;;;4.95;;
63536;SDS011;49686;51.880;5.632;2022-09-09T03:13:13;5.72;;;4.90;;
63536;SDS011;49686;51.880;5.632;2022-09-09T03:15:39;6.95;;;4.78;;
63536;SDS011;49686;51.880;5.632;2022-09-09T03:18:07;6.57;;;4.03;;
63536;SDS011;49686;51.880;5.632;2022-09-09T03:20:35;7.75;;;4.13;;
63536;SDS011;49686;51.880;5.632;2022-09-09T03:23:02;5.30;;;4.63;;
63536;SDS011;49686;51.880;5.632;2022-09-09T03:25:29;6.05;;;4.38;;
63536;SDS011;49686;51.880;5.632;2022-09-09T03:27:56;6.40;;;4.05;;
63536;SDS011;49686;51.880;5.632;2022-09-09T03:30:23;7.07;;;4.18;;
63536;SDS011;49686;51.880;5.632;2022-09-09T03:32:52;7.43;;;3.83;;
63536;SDS011;49686;51.880;5.632;2022-09-09T03:35:19;6.97;;;4.03;;
63536;SDS011;49686;51.880;5.632;2022-09-09T03:37:47;7.72;;;4.10;;
63536;SDS011;49686;51.880;5.632;2022-09-09T03:40:14;6.17;;;4.23;;
63536;SDS011;49686;51.880;5.632;2022-09-09T03:42:42;7.05;;;4.20;;
63536;SDS011;49686;51.880;5.632;2022-09-09T03:45:09;5.35;;;4.85;;
63536;SDS011;49686;51.880;5.632;2022-09-09T03:47:36;9.77;;;4.10;;
63536;SDS011;49686;51.880;5.632;2022-09-09T03:50:04;10.68;;;5.15;;
63536;SDS011;49686;51.880;5.632;2022-09-09T03:52:31;9.30;;;4.75;;
63536;SDS011;49686;51.880;5.632;2022-09-09T03:55:02;6.85;;;3.97;;
63536;SDS011;49686;51.880;5.632;2022-09-09T03:57:30;8.80;;;3.63;;
63536;SDS011;49686;51.880;5.632;2022-09-09T03:59:57;7.57;;;3.15;;
63536;SDS011;49686;51.880;5.632;2022-09-09T04:02:26;7.35;;;3.30;;
63536;SDS011;49686;51.880;5.632;2022-09-09T04:04:53;5.85;;;3.10;;
63536;SDS011;49686;51.880;5.632;2022-09-09T04:07:20;9.10;;;3.90;;
63536;SDS011;49686;51.880;5.632;2022-09-09T04:09:47;5.35;;;3.17;;
63536;SDS011;49686;51.880;5.632;2022-09-09T04:12:16;10.88;;;4.28;;
63536;SDS011;49686;51.880;5.632;2022-09-09T04:14:42;9.67;;;4.10;;
63536;SDS011;49686;51.880;5.632;2022-09-09T04:17:09;4.95;;;3.25;;
63536;SDS011;49686;51.880;5.632;2022-09-09T04:19:36;8.05;;;4.18;;
63536;SDS011;49686;51.880;5.632;2022-09-09T04:22:03;6.60;;;3.40;;
63536;SDS011;49686;51.880;5.632;2022-09-09T04:24:30;6.15;;;3.63;;
63536;SDS011;49686;51.880;5.632;2022-09-09T04:26:57;6.50;;;3.03;;
63536;SDS011;49686;51.880;5.632;2022-09-09T04:29:26;4.50;;;3.55;;
63536;SDS011;49686;51.880;5.632;2022-09-09T04:31:53;8.37;;;4.17;;
63536;SDS011;49686;51.880;5.632;2022-09-09T04:34:20;9.20;;;3.70;;
63536;SDS011;49686;51.880;5.632;2022-09-09T04:36:47;12.77;;;4.40;;
63536;SDS011;49686;51.880;5.632;2022-09-09T04:39:14;11.63;;;3.92;;
63536;SDS011;49686;51.880;5.632;2022-09-09T04:41:41;8.27;;;3.35;;
63536;SDS011;49686;51.880;5.632;2022-09-09T04:44:08;8.73;;;3.40;;
63536;SDS011;49686;51.880;5.632;2022-09-09T04:46:36;6.20;;;2.95;;
63536;SDS011;49686;51.880;5.632;2022-09-09T04:49:03;8.53;;;3.17;;
63536;SDS011;49686;51.880;5.632;2022-09-09T04:51:30;9.52;;;3.20;;
63536;SDS011;49686;51.880;5.632;2022-09-09T04:53:57;5.95;;;3.03;;
63536;SDS011;49686;51.880;5.632;2022-09-09T04:56:24;5.28;;;3.33;;
63536;SDS011;49686;51.880;5.632;2022-09-09T04:58:51;5.95;;;3.40;;
63536;SDS011;49686;51.880;5.632;2022-09-09T05:01:19;6.55;;;3.10;;
63536;SDS011;49686;51.880;5.632;2022-09-09T05:03:48;5.65;;;2.75;;
63536;SDS011;49686;51.880;5.632;2022-09-09T05:08:44;7.80;;;2.92;;
63536;SDS011;49686;51.880;5.632;2022-09-09T05:11:18;11.15;;;3.30;;
63536;SDS011;49686;51.880;5.632;2022-09-09T05:13:46;9.05;;;3.38;;
63536;SDS011;49686;51.880;5.632;2022-09-09T05:16:13;9.07;;;2.97;;
63536;SDS011;49686;51.880;5.632;2022-09-09T05:18:40;6.63;;;2.42;;
63536;SDS011;49686;51.880;5.632;2022-09-09T05:21:09;8.63;;;3.10;;
63536;SDS011;49686;51.880;5.632;2022-09-09T05:23:37;5.65;;;3.00;;
63536;SDS011;49686;51.880;5.632;2022-09-09T05:26:04;4.10;;;2.50;;
63536;SDS011;49686;51.880;5.632;2022-09-09T05:28:33;6.30;;;3.00;;
63536;SDS011;49686;51.880;5.632;2022-09-09T05:31:01;8.05;;;2.80;;
63536;SDS011;49686;51.880;5.632;2022-09-09T05:33:29;8.55;;;2.83;;
63536;SDS011;49686;51.880;5.632;2022-09-09T05:35:58;8.55;;;2.85;;
63536;SDS011;49686;51.880;5.632;2022-09-09T05:38:26;6.47;;;2.85;;
63536;SDS011;49686;51.880;5.632;2022-09-09T05:40:54;5.65;;;1.88;;
63536;SDS011;49686;51.880;5.632;2022-09-09T05:43:22;8.38;;;2.60;;
63536;SDS011;49686;51.880;5.632;2022-09-09T05:45:58;7.22;;;3.00;;
63536;SDS011;49686;51.880;5.632;2022-09-09T05:48:27;8.48;;;3.38;;
63536;SDS011;49686;51.880;5.632;2022-09-09T05:50:55;8.52;;;3.75;;
63536;SDS011;49686;51.880;5.632;2022-09-09T05:53:21;5.95;;;2.70;;
63536;SDS011;49686;51.880;5.632;2022-09-09T05:55:50;6.65;;;3.13;;
63536;SDS011;49686;51.880;5.632;2022-09-09T05:58:25;7.10;;;3.50;;
63536;SDS011;49686;51.880;5.632;2022-09-09T06:00:52;9.85;;;2.70;;
63536;SDS011;49686;51.880;5.632;2022-09-09T06:03:19;5.70;;;2.72;;
63536;SDS011;49686;51.880;5.632;2022-09-09T06:05:45;8.20;;;2.83;;
63536;SDS011;49686;51.880;5.632;2022-09-09T06:08:13;9.15;;;3.25;;
63536;SDS011;49686;51.880;5.632;2022-09-09T06:10:40;12.52;;;2.92;;
63536;SDS011;49686;51.880;5.632;2022-09-09T06:13:08;7.25;;;2.45;;
63536;SDS011;49686;51.880;5.632;2022-09-09T06:15:36;4.35;;;2.05;;
63536;SDS011;49686;51.880;5.632;2022-09-09T06:18:03;8.45;;;2.67;;
63536;SDS011;49686;51.880;5.632;2022-09-09T06:20:29;8.13;;;2.88;;
63536;SDS011;49686;51.880;5.632;2022-09-09T06:22:57;5.15;;;2.30;;
63536;SDS011;49686;51.880;5.632;2022-09-09T06:25:24;8.90;;;2.45;;
63536;SDS011;49686;51.880;5.632;2022-09-09T06:27:50;3.95;;;2.17;;
63536;SDS011;49686;51.880;5.632;2022-09-09T06:30:21;6.18;;;2.70;;
63536;SDS011;49686;51.880;5.632;2022-09-09T06:32:48;8.03;;;2.97;;
63536;SDS011;49686;51.880;5.632;2022-09-09T06:35:15;6.32;;;2.33;;
63536;SDS011;49686;51.880;5.632;2022-09-09T06:37:44;8.82;;;2.47;;
63536;SDS011;49686;51.880;5.632;2022-09-09T06:40:11;8.38;;;3.08;;
63536;SDS011;49686;51.880;5.632;2022-09-09T06:42:38;4.13;;;2.05;;
63536;SDS011;49686;51.880;5.632;2022-09-09T06:45:06;8.60;;;2.53;;
63536;SDS011;49686;51.880;5.632;2022-09-09T06:47:35;6.60;;;2.40;;
63536;SDS011;49686;51.880;5.632;2022-09-09T06:50:01;5.88;;;2.20;;
63536;SDS011;49686;51.880;5.632;2022-09-09T06:52:29;6.13;;;2.30;;
63536;SDS011;49686;51.880;5.632;2022-09-09T06:54:56;6.70;;;2.97;;
63536;SDS011;49686;51.880;5.632;2022-09-09T06:57:22;7.28;;;2.40;;
63536;SDS011;49686;51.880;5.632;2022-09-09T07:00:03;7.10;;;2.30;;
63536;SDS011;49686;51.880;5.632;2022-09-09T07:02:30;7.80;;;2.50;;
63536;SDS011;49686;51.880;5.632;2022-09-09T07:04:58;6.90;;;1.73;;
63536;SDS011;49686;51.880;5.632;2022-09-09T07:07:25;7.32;;;2.20;;
63536;SDS011;49686;51.880;5.632;2022-09-09T07:09:52;4.05;;;1.83;;
63536;SDS011;49686;51.880;5.632;2022-09-09T07:12:19;5.60;;;1.65;;
63536;SDS011;49686;51.880;5.632;2022-09-09T07:14:46;3.42;;;2.22;;
63536;SDS011;49686;51.880;5.632;2022-09-09T07:17:13;4.38;;;1.60;;
63536;SDS011;49686;51.880;5.632;2022-09-09T07:19:40;6.22;;;1.70;;
63536;SDS011;49686;51.880;5.632;2022-09-09T07:22:11;5.93;;;2.00;;
63536;SDS011;49686;51.880;5.632;2022-09-09T07:24:38;9.77;;;2.05;;
63536;SDS011;49686;51.880;5.632;2022-09-09T07:27:05;3.60;;;1.50;;
63536;SDS011;49686;51.880;5.632;2022-09-09T07:29:34;10.93;;;1.75;;
63536;SDS011;49686;51.880;5.632;2022-09-09T07:32:01;6.57;;;2.33;;
63536;SDS011;49686;51.880;5.632;2022-09-09T07:34:33;6.53;;;2.08;;
63536;SDS011;49686;51.880;5.632;2022-09-09T07:37:01;6.57;;;2.20;;
63536;SDS011;49686;51.880;5.632;2022-09-09T07:39:29;7.15;;;2.40;;
63536;SDS011;49686;51.880;5.632;2022-09-09T07:41:56;6.40;;;2.92;;
63536;SDS011;49686;51.880;5.632;2022-09-09T07:44:27;8.07;;;1.80;;
63536;SDS011;49686;51.880;5.632;2022-09-09T07:46:54;6.75;;;2.45;;
63536;SDS011;49686;51.880;5.632;2022-09-09T07:49:24;10.43;;;2.70;;
63536;SDS011;49686;51.880;5.632;2022-09-09T07:52:01;5.60;;;1.73;;
63536;SDS011;49686;51.880;5.632;2022-09-09T07:54:30;5.20;;;2.10;;
63536;SDS011;49686;51.880;5.632;2022-09-09T07:56:58;6.60;;;2.60;;
63536;SDS011;49686;51.880;5.632;2022-09-09T07:59:25;5.93;;;1.73;;
63536;SDS011;49686;51.880;5.632;2022-09-09T08:01:52;6.10;;;2.40;;
63536;SDS011;49686;51.880;5.632;2022-09-09T08:04:21;7.18;;;2.33;;
63536;SDS011;49686;51.880;5.632;2022-09-09T08:09:16;7.97;;;2.00;;
63536;SDS011;49686;51.880;5.632;2022-09-09T08:11:45;5.47;;;2.42;;
63536;SDS011;49686;51.880;5.632;2022-09-09T08:14:12;4.13;;;1.63;;
63536;SDS011;49686;51.880;5.632;2022-09-09T08:16:40;8.52;;;1.92;;
63536;SDS011;49686;51.880;5.632;2022-09-09T08:19:08;5.72;;;1.95;;
63536;SDS011;49686;51.880;5.632;2022-09-09T08:21:36;6.53;;;1.70;;
63536;SDS011;49686;51.880;5.632;2022-09-09T08:24:04;7.20;;;2.10;;
63536;SDS011;49686;51.880;5.632;2022-09-09T08:26:33;4.88;;;2.35;;
63536;SDS011;49686;51.880;5.632;2022-09-09T08:29:03;7.20;;;2.65;;
63536;SDS011;49686;51.880;5.632;2022-09-09T08:31:32;4.25;;;1.75;;
63536;SDS011;49686;51.880;5.632;2022-09-09T08:34:01;6.28;;;1.58;;
63536;SDS011;49686;51.880;5.632;2022-09-09T08:36:28;12.07;;;1.85;;
63536;SDS011;49686;51.880;5.632;2022-09-09T08:38:57;8.23;;;1.98;;
63536;SDS011;49686;51.880;5.632;2022-09-09T08:41:30;10.40;;;1.55;;
63536;SDS011;49686;51.880;5.632;2022-09-09T08:44:17;4.15;;;2.10;;
63536;SDS011;49686;51.880;5.632;2022-09-09T08:46:54;4.65;;;1.42;;
63536;SDS011;49686;51.880;5.632;2022-09-09T08:49:38;7.57;;;1.88;;
63536;SDS011;49686;51.880;5.632;2022-09-09T08:52:27;5.88;;;1.50;;
63536;SDS011;49686;51.880;5.632;2022-09-09T08:54:58;7.63;;;2.35;;
63536;SDS011;49686;51.880;5.632;2022-09-09T08:57:30;4.35;;;1.40;;
63536;SDS011;49686;51.880;5.632;2022-09-09T08:59:59;5.93;;;1.50;;
63536;SDS011;49686;51.880;5.632;2022-09-09T09:02:27;5.22;;;1.83;;
63536;SDS011;49686;51.880;5.632;2022-09-09T09:05:06;9.27;;;1.60;;
63536;SDS011;49686;51.880;5.632;2022-09-09T09:07:46;6.95;;;1.80;;
63536;SDS011;49686;51.880;5.632;2022-09-09T09:10:25;4.78;;;1.55;;
63536;SDS011;49686;51.880;5.632;2022-09-09T09:13:08;5.75;;;1.90;;
63536;SDS011;49686;51.880;5.632;2022-09-09T09:15:42;7.10;;;1.80;;
63536;SDS011;49686;51.880;5.632;2022-09-09T09:18:12;4.70;;;1.30;;
63536;SDS011;49686;51.880;5.632;2022-09-09T09:20:42;6.05;;;1.80;;
63536;SDS011;49686;51.880;5.632;2022-09-09T09:23:16;6.35;;;1.52;;
63536;SDS011;49686;51.880;5.632;2022-09-09T09:25:48;7.80;;;1.90;;
63536;SDS011;49686;51.880;5.632;2022-09-09T09:28:17;5.32;;;1.42;;
63536;SDS011;49686;51.880;5.632;2022-09-09T09:30:51;5.75;;;1.80;;
63536;SDS011;49686;51.880;5.632;2022-09-09T09:33:23;5.95;;;1.63;;
63536;SDS011;49686;51.880;5.632;2022-09-09T09:35:56;7.47;;;1.75;;
63536;SDS011;49686;51.880;5.632;2022-09-09T09:38:24;6.18;;;1.58;;
63536;SDS011;49686;51.880;5.632;2022-09-09T09:41:12;5.15;;;1.58;;
63536;SDS011;49686;51.880;5.632;2022-09-09T09:43:40;6.85;;;1.63;;
63536;SDS011;49686;51.880;5.632;2022-09-09T09:46:18;5.70;;;1.63;;
63536;SDS011;49686;51.880;5.632;2022-09-09T09:48:55;7.55;;;1.67;;
63536;SDS011;49686;51.880;5.632;2022-09-09T09:51:22;4.90;;;1.40;;
63536;SDS011;49686;51.880;5.632;2022-09-09T09:53:51;5.38;;;1.60;;
63536;SDS011;49686;51.880;5.632;2022-09-09T09:56:26;8.90;;;1.80;;
63536;SDS011;49686;51.880;5.632;2022-09-09T09:58:54;6.00;;;1.35;;
63536;SDS011;49686;51.880;5.632;2022-09-09T10:01:26;3.70;;;1.55;;
63536;SDS011;49686;51.880;5.632;2022-09-09T10:03:57;4.72;;;1.50;;
63536;SDS011;49686;51.880;5.632;2022-09-09T10:06:31;6.18;;;1.85;;
63536;SDS011;49686;51.880;5.632;2022-09-09T10:09:00;7.80;;;1.63;;
63536;SDS011;49686;51.880;5.632;2022-09-09T10:11:41;5.00;;;1.75;;
63536;SDS011;49686;51.880;5.632;2022-09-09T10:14:17;6.95;;;1.90;;
63536;SDS011;49686;51.880;5.632;2022-09-09T10:16:55;7.13;;;1.77;;
63536;SDS011;49686;51.880;5.632;2022-09-09T10:19:33;6.90;;;1.67;;
63536;SDS011;49686;51.880;5.632;2022-09-09T10:25:04;6.43;;;1.77;;
63536;SDS011;49686;51.880;5.632;2022-09-09T10:27:42;6.30;;;1.70;;
63536;SDS011;49686;51.880;5.632;2022-09-09T10:30:24;8.25;;;2.00;;
63536;SDS011;49686;51.880;5.632;2022-09-09T10:33:00;4.88;;;1.63;;
63536;SDS011;49686;51.880;5.632;2022-09-09T10:35:42;8.15;;;1.50;;
63536;SDS011;49686;51.880;5.632;2022-09-09T10:38:16;6.07;;;2.10;;
63536;SDS011;49686;51.880;5.632;2022-09-09T10:40:47;6.10;;;1.92;;
63536;SDS011;49686;51.880;5.632;2022-09-09T10:46:38;6.57;;;2.00;;
63536;SDS011;49686;51.880;5.632;2022-09-09T10:49:18;5.47;;;1.60;;
63536;SDS011;49686;51.880;5.632;2022-09-09T10:51:56;7.53;;;1.85;;
63536;SDS011;49686;51.880;5.632;2022-09-09T10:54:33;9.43;;;2.03;;
63536;SDS011;49686;51.880;5.632;2022-09-09T10:57:11;8.70;;;2.47;;
63536;SDS011;49686;51.880;5.632;2022-09-09T10:59:43;9.02;;;2.10;;
63536;SDS011;49686;51.880;5.632;2022-09-09T11:02:16;6.85;;;1.90;;
63536;SDS011;49686;51.880;5.632;2022-09-09T11:04:50;10.02;;;1.80;;
63536;SDS011;49686;51.880;5.632;2022-09-09T11:07:24;8.13;;;2.80;;
63536;SDS011;49686;51.880;5.632;2022-09-09T11:09:58;5.63;;;2.10;;
63536;SDS011;49686;51.880;5.632;2022-09-09T11:12:29;8.30;;;2.17;;
63536;SDS011;49686;51.880;5.632;2022-09-09T11:14:59;5.50;;;2.38;;
63536;SDS011;49686;51.880;5.632;2022-09-09T11:17:33;7.60;;;2.33;;
63536;SDS011;49686;51.880;5.632;2022-09-09T11:20:06;8.65;;;1.90;;
63536;SDS011;49686;51.880;5.632;2022-09-09T11:22:39;8.48;;;2.22;;
63536;SDS011;49686;51.880;5.632;2022-09-09T11:25:14;6.28;;;2.17;;
63536;SDS011;49686;51.880;5.632;2022-09-09T11:27:49;11.88;;;3.10;;
63536;SDS011;49686;51.880;5.632;2022-09-09T11:30:26;5.38;;;1.40;;
63536;SDS011;49686;51.880;5.632;2022-09-09T11:33:23;5.03;;;2.35;;
63536;SDS011;49686;51.880;5.632;2022-09-09T11:36:21;5.43;;;2.10;;
63536;SDS011;49686;51.880;5.632;2022-09-09T11:39:07;4.65;;;2.00;;
63536;SDS011;49686;51.880;5.632;2022-09-09T11:41:49;5.20;;;1.42;;
63536;SDS011;49686;51.880;5.632;2022-09-09T11:44:17;8.77;;;2.45;;
63536;SDS011;49686;51.880;5.632;2022-09-09T11:46:50;5.22;;;1.92;;
63536;SDS011;49686;51.880;5.632;2022-09-09T11:49:25;5.40;;;2.10;;
63536;SDS011;49686;51.880;5.632;2022-09-09T11:51:56;3.85;;;2.08;;
63536;SDS011;49686;51.880;5.632;2022-09-09T11:54:28;6.95;;;1.60;;
63536;SDS011;49686;51.880;5.632;2022-09-09T11:56:55;5.97;;;1.42;;
63536;SDS011;49686;51.880;5.632;2022-09-09T11:59:30;5.05;;;1.60;;
63536;SDS011;49686;51.880;5.632;2022-09-09T12:01:58;4.15;;;1.58;;
63536;SDS011;49686;51.880;5.632;2022-09-09T12:04:35;6.90;;;1.95;;
63536;SDS011;49686;51.880;5.632;2022-09-09T12:07:21;5.35;;;1.73;;
63536;SDS011;49686;51.880;5.632;2022-09-09T12:10:01;8.68;;;2.03;;
63536;SDS011;49686;51.880;5.632;2022-09-09T12:12:32;2.83;;;1.50;;
63536;SDS011;49686;51.880;5.632;2022-09-09T12:15:02;4.45;;;1.98;;
63536;SDS011;49686;51.880;5.632;2022-09-09T12:17:44;4.80;;;2.15;;
63536;SDS011;49686;51.880;5.632;2022-09-09T12:20:14;4.20;;;1.67;;
63536;SDS011;49686;51.880;5.632;2022-09-09T12:22:54;5.05;;;1.80;;
63536;SDS011;49686;51.880;5.632;2022-09-09T12:25:34;4.22;;;1.67;;
63536;SDS011;49686;51.880;5.632;2022-09-09T12:30:44;5.90;;;2.22;;
63536;SDS011;49686;51.880;5.632;2022-09-09T12:33:16;5.10;;;2.00;;
63536;SDS011;49686;51.880;5.632;2022-09-09T12:35:45;3.35;;;1.90;;
63536;SDS011;49686;51.880;5.632;2022-09-09T12:38:20;6.88;;;1.90;;
63536;SDS011;49686;51.880;5.632;2022-09-09T12:40:54;4.95;;;1.83;;
63536;SDS011;49686;51.880;5.632;2022-09-09T12:43:22;3.45;;;1.75;;
63536;SDS011;49686;51.880;5.632;2022-09-09T12:45:50;3.15;;;1.60;;
63536;SDS011;49686;51.880;5.632;2022-09-09T12:48:20;5.85;;;2.15;;
63536;SDS011;49686;51.880;5.632;2022-09-09T12:50:54;3.95;;;2.38;;
63536;SDS011;49686;51.880;5.632;2022-09-09T12:53:24;7.30;;;1.90;;
63536;SDS011;49686;51.880;5.632;2022-09-09T12:55:54;7.70;;;2.40;;
63536;SDS011;49686;51.880;5.632;2022-09-09T12:58:23;6.20;;;1.92;;
63536;SDS011;49686;51.880;5.632;2022-09-09T13:00:52;3.05;;;1.58;;
63536;SDS011;49686;51.880;5.632;2022-09-09T13:03:20;4.03;;;2.40;;
63536;SDS011;49686;51.880;5.632;2022-09-09T13:05:51;3.45;;;2.05;;
63536;SDS011;49686;51.880;5.632;2022-09-09T13:08:18;10.27;;;2.10;;
63536;SDS011;49686;51.880;5.632;2022-09-09T13:10:48;6.93;;;2.28;;
63536;SDS011;49686;51.880;5.632;2022-09-09T13:13:26;4.50;;;1.55;;
63536;SDS011;49686;51.880;5.632;2022-09-09T13:15:55;3.25;;;1.33;;
63536;SDS011;49686;51.880;5.632;2022-09-09T13:18:24;4.22;;;1.83;;
63536;SDS011;49686;51.880;5.632;2022-09-09T13:20:56;4.15;;;1.70;;
63536;SDS011;49686;51.880;5.632;2022-09-09T13:23:25;3.53;;;1.63;;
63536;SDS011;49686;51.880;5.632;2022-09-09T13:25:56;6.90;;;1.77;;
63536;SDS011;49686;51.880;5.632;2022-09-09T13:28:25;6.15;;;1.90;;
63536;SDS011;49686;51.880;5.632;2022-09-09T13:30:59;4.80;;;1.75;;
63536;SDS011;49686;51.880;5.632;2022-09-09T13:33:30;4.03;;;1.45;;
63536;SDS011;49686;51.880;5.632;2022-09-09T13:35:59;4.85;;;1.58;;
63536;SDS011;49686;51.880;5.632;2022-09-09T13:38:29;2.55;;;1.17;;
63536;SDS011;49686;51.880;5.632;2022-09-09T13:41:00;4.80;;;1.30;;
63536;SDS011;49686;51.880;5.632;2022-09-09T13:43:28;6.72;;;1.50;;
63536;SDS011;49686;51.880;5.632;2022-09-09T13:45:58;4.15;;;1.23;;
63536;SDS011;49686;51.880;5.632;2022-09-09T13:48:26;4.78;;;1.45;;
63536;SDS011;49686;51.880;5.632;2022-09-09T13:50:57;3.45;;;1.25;;
63536;SDS011;49686;51.880;5.632;2022-09-09T13:53:27;4.28;;;1.48;;
63536;SDS011;49686;51.880;5.632;2022-09-09T13:55:54;2.60;;;1.17;;
63536;SDS011;49686;51.880;5.632;2022-09-09T13:58:22;3.38;;;0.90;;
63536;SDS011;49686;51.880;5.632;2022-09-09T14:00:52;4.03;;;1.35;;
63536;SDS011;49686;51.880;5.632;2022-09-09T14:03:20;4.22;;;1.27;;
63536;SDS011;49686;51.880;5.632;2022-09-09T14:05:47;5.28;;;1.92;;
63536;SDS011;49686;51.880;5.632;2022-09-09T14:08:16;2.97;;;1.40;;
63536;SDS011;49686;51.880;5.632;2022-09-09T14:10:49;5.55;;;1.73;;
63536;SDS011;49686;51.880;5.632;2022-09-09T14:13:17;6.43;;;1.73;;
63536;SDS011;49686;51.880;5.632;2022-09-09T14:15:45;4.72;;;1.70;;
63536;SDS011;49686;51.880;5.632;2022-09-09T14:18:12;4.15;;;1.77;;
63536;SDS011;49686;51.880;5.632;2022-09-09T14:20:39;4.28;;;1.73;;
63536;SDS011;49686;51.880;5.632;2022-09-09T14:23:09;5.82;;;1.75;;
63536;SDS011;49686;51.880;5.632;2022-09-09T14:25:39;4.22;;;2.00;;
63536;SDS011;49686;51.880;5.632;2022-09-09T14:28:08;6.03;;;1.60;;
63536;SDS011;49686;51.880;5.632;2022-09-09T14:30:37;2.85;;;1.30;;
63536;SDS011;49686;51.880;5.632;2022-09-09T14:33:06;4.38;;;1.45;;
63536;SDS011;49686;51.880;5.632;2022-09-09T14:35:33;3.38;;;1.40;;
63536;SDS011;49686;51.880;5.632;2022-09-09T14:38:00;3.65;;;1.48;;
63536;SDS011;49686;51.880;5.632;2022-09-09T14:40:27;7.47;;;2.35;;
63536;SDS011;49686;51.880;5.632;2022-09-09T14:42:55;5.07;;;1.63;;
63536;SDS011;49686;51.880;5.632;2022-09-09T14:45:22;6.07;;;2.08;;
63536;SDS011;49686;51.880;5.632;2022-09-09T14:47:49;7.70;;;2.47;;
63536;SDS011;49686;51.880;5.632;2022-09-09T14:50:18;3.97;;;1.60;;
63536;SDS011;49686;51.880;5.632;2022-09-09T14:52:45;6.05;;;1.90;;
63536;SDS011;49686;51.880;5.632;2022-09-09T14:55:12;3.72;;;1.52;;
63536;SDS011;49686;51.880;5.632;2022-09-09T14:57:40;5.53;;;1.85;;
63536;SDS011;49686;51.880;5.632;2022-09-09T15:00:08;3.83;;;1.60;;
63536;SDS011;49686;51.880;5.632;2022-09-09T15:02:36;6.68;;;1.90;;
63536;SDS011;49686;51.880;5.632;2022-09-09T15:05:03;4.72;;;1.50;;
63536;SDS011;49686;51.880;5.632;2022-09-09T15:07:32;4.45;;;1.42;;
63536;SDS011;49686;51.880;5.632;2022-09-09T15:09:59;3.65;;;1.38;;
63536;SDS011;49686;51.880;5.632;2022-09-09T15:12:26;5.00;;;1.95;;
63536;SDS011;49686;51.880;5.632;2022-09-09T15:14:53;3.33;;;1.35;;
63536;SDS011;49686;51.880;5.632;2022-09-09T15:17:20;6.43;;;1.50;;
63536;SDS011;49686;51.880;5.632;2022-09-09T15:19:50;4.43;;;1.48;;
63536;SDS011;49686;51.880;5.632;2022-09-09T15:22:16;3.65;;;1.75;;
63536;SDS011;49686;51.880;5.632;2022-09-09T15:24:45;1.65;;;1.20;;
63536;SDS011;49686;51.880;5.632;2022-09-09T15:27:12;1.88;;;1.20;;